KLRU/LRU METAR and TAF weather

Enter ICAO airport designator
Station Type Date Time Source
KLRU METAR 2022/06/28 15:15 UTC NOAA

KLRU 281515Z AUTO 02008KT 10SM BKN110 23/14 A3035 RMK AO2 T02300137


Station Type Date Time Source
KLRU Decoded METAR 2022/06/28 15:15 UTC NOAA

Las Cruces, Las Cruces International Airport, NM, United States (KLRU) 32-17-22N 106-55-19W
Jun 28, 2022 - 11:15 AM EDT / 2022.06.28 1515 UTC
Wind: from the NNE (020 degrees) at 9 MPH (8 KT):0
Visibility: 10 mile(s):0
Sky conditions: mostly cloudy
Temperature: 73.4 F (23.0 C)
Dew Point: 56.7 F (13.7 C)
Relative Humidity: 55%
Pressure (altimeter): 30.35 in. Hg (1027 hPa)
ob: KLRU 281515Z AUTO 02008KT 10SM BKN110 23/14 A3035 RMK AO2 T02300137
cycle: 15

Station Type Date Time Source
KLRU TAF 2022/06/28 12:36 UTC NOAA

TAF KLRU 281133Z 2812/2912 36008KT P6SM BKN080 BKN250
FM281600 06007KT P6SM FEW100 BKN250
FM282000 09008KT P6SM FEW080 SCT250
FM282300 09010KT P6SM SCT080 BKN150

Example: see airport list